Terminal Aerodrome Forecast
Issued by NWS Boston, MA

Home | Current Version | Previous Version | Text Only | Print | Product List | Glossary On
Versions: 1 2 3 4 5 6 7 8 9 10 11 12 13 14 15 16 17 18 19 20 21 22 23 24 25 26 27 28 29 30 31 32 33 34 35 36 37 38 39 40 41 42 43 44 45 46 47 48 49 50
000
FTUS41 KBOX 230550
TAFBOS
TAF
KBOS 230550Z 2306/2412 22011KT P6SM SCT080
     FM231700 22013G21KT P6SM SCT050
     FM232100 22013G20KT P6SM SCT250
     FM232300 22012KT P6SM BKN050
     FM240300 23009KT P6SM VCTS BKN050CB
     FM240600 30006KT 5SM -SHRA OVC045
     FM241100 35007KT 5SM -SHRA OVC025=

USA.gov is the U.S. government's official web portal to all federal, state and local government web resources and services.